sensor_id;sensor_type;location;lat;lon;timestamp;pressure;altitude;pressure_sealevel;temperature;humidity
15884;BME280;8040;50.254;10.960;2023-04-29T00:01:33;97754.41;;;14.55;95.43
15884;BME280;8040;50.254;10.960;2023-04-29T00:03:59;97723.31;;;14.35;94.54
15884;BME280;8040;50.254;10.960;2023-04-29T00:06:24;97728.88;;;14.39;94.38
15884;BME280;8040;50.254;10.960;2023-04-29T00:08:50;97710.88;;;14.26;94.50
15884;BME280;8040;50.254;10.960;2023-04-29T00:11:16;97731.06;;;14.45;95.06
15884;BME280;8040;50.254;10.960;2023-04-29T00:13:42;97711.03;;;14.41;94.84
15884;BME280;8040;50.254;10.960;2023-04-29T00:16:07;97705.72;;;14.45;94.82
15884;BME280;8040;50.254;10.960;2023-04-29T00:18:34;97723.59;;;14.54;95.06
15884;BME280;8040;50.254;10.960;2023-04-29T00:21:01;97691.38;;;14.36;95.16
15884;BME280;8040;50.254;10.960;2023-04-29T00:23:27;97732.81;;;14.62;94.66
15884;BME280;8040;50.254;10.960;2023-04-29T00:25:52;97685.91;;;14.36;94.43
15884;BME280;8040;50.254;10.960;2023-04-29T00:28:18;97718.13;;;14.54;94.44
15884;BME280;8040;50.254;10.960;2023-04-29T00:30:44;97704.78;;;14.41;94.45
15884;BME280;8040;50.254;10.960;2023-04-29T00:33:09;97693.84;;;14.29;94.47
15884;BME280;8040;50.254;10.960;2023-04-29T00:35:34;97696.72;;;14.32;94.09
15884;BME280;8040;50.254;10.960;2023-04-29T00:38:00;97707.25;;;14.34;93.96
15884;BME280;8040;50.254;10.960;2023-04-29T00:40:27;97739.16;;;14.42;94.13
15884;BME280;8040;50.254;10.960;2023-04-29T00:42:52;97683.81;;;14.00;94.17
15884;BME280;8040;50.254;10.960;2023-04-29T00:45:18;97695.31;;;14.06;93.96
15884;BME280;8040;50.254;10.960;2023-04-29T00:47:43;97682.09;;;13.96;94.18
15884;BME280;8040;50.254;10.960;2023-04-29T00:50:09;97734.50;;;14.22;94.24
15884;BME280;8040;50.254;10.960;2023-04-29T00:52:36;97682.78;;;13.93;94.74
15884;BME280;8040;50.254;10.960;2023-04-29T00:55:03;97679.56;;;13.91;94.69
15884;BME280;8040;50.254;10.960;2023-04-29T00:57:29;97708.16;;;14.05;94.88
15884;BME280;8040;50.254;10.960;2023-04-29T00:59:56;97695.97;;;14.03;94.83
15884;BME280;8040;50.254;10.960;2023-04-29T01:02:23;97729.09;;;14.13;94.69
15884;BME280;8040;50.254;10.960;2023-04-29T01:04:49;97725.06;;;14.19;95.17
15884;BME280;8040;50.254;10.960;2023-04-29T01:07:18;97695.84;;;13.99;95.65
15884;BME280;8040;50.254;10.960;2023-04-29T01:13:01;97718.81;;;14.19;96.00
15884;BME280;8040;50.254;10.960;2023-04-29T01:18:14;97707.50;;;14.08;95.84
15884;BME280;8040;50.254;10.960;2023-04-29T01:20:43;97721.72;;;14.14;95.86
15884;BME280;8040;50.254;10.960;2023-04-29T01:23:09;97693.63;;;14.01;95.95
15884;BME280;8040;50.254;10.960;2023-04-29T01:25:35;97711.00;;;14.09;96.15
15884;BME280;8040;50.254;10.960;2023-04-29T01:31:05;97718.34;;;14.17;96.06
15884;BME280;8040;50.254;10.960;2023-04-29T01:33:39;97744.88;;;14.28;95.92
15884;BME280;8040;50.254;10.960;2023-04-29T01:36:31;97744.88;;;14.28;95.75
15884;BME280;8040;50.254;10.960;2023-04-29T01:42:05;97754.97;;;14.28;95.73
15884;BME280;8040;50.254;10.960;2023-04-29T01:44:35;97734.03;;;14.20;95.68
15884;BME280;8040;50.254;10.960;2023-04-29T01:47:02;97703.59;;;13.97;95.23
15884;BME280;8040;50.254;10.960;2023-04-29T01:49:28;97720.13;;;14.13;95.50
15884;BME280;8040;50.254;10.960;2023-04-29T01:51:54;97753.88;;;14.29;95.07
15884;BME280;8040;50.254;10.960;2023-04-29T01:54:20;97730.72;;;14.14;94.62
15884;BME280;8040;50.254;10.960;2023-04-29T01:56:47;97755.47;;;14.30;94.43
15884;BME280;8040;50.254;10.960;2023-04-29T01:59:12;97739.34;;;14.16;93.94
15884;BME280;8040;50.254;10.960;2023-04-29T02:01:38;97727.81;;;13.99;93.76
15884;BME280;8040;50.254;10.960;2023-04-29T02:04:03;97742.34;;;14.03;94.27
15884;BME280;8040;50.254;10.960;2023-04-29T02:06:29;97717.88;;;13.94;94.09
15884;BME280;8040;50.254;10.960;2023-04-29T02:08:57;97743.94;;;14.04;93.98
15884;BME280;8040;50.254;10.960;2023-04-29T02:11:24;97734.22;;;13.94;93.73
15884;BME280;8040;50.254;10.960;2023-04-29T02:13:50;97748.28;;;14.05;93.56
15884;BME280;8040;50.254;10.960;2023-04-29T02:16:16;97762.03;;;14.08;93.13
15884;BME280;8040;50.254;10.960;2023-04-29T02:18:44;97727.06;;;13.90;93.22
15884;BME280;8040;50.254;10.960;2023-04-29T02:21:10;97754.19;;;14.07;93.13
15884;BME280;8040;50.254;10.960;2023-04-29T02:23:36;97728.84;;;13.86;92.70
15884;BME280;8040;50.254;10.960;2023-04-29T02:26:02;97752.34;;;13.99;93.01
15884;BME280;8040;50.254;10.960;2023-04-29T02:28:30;97761.63;;;13.98;92.93
15884;BME280;8040;50.254;10.960;2023-04-29T02:30:56;97738.84;;;13.82;92.74
15884;BME280;8040;50.254;10.960;2023-04-29T02:33:21;97763.44;;;13.94;92.22
15884;BME280;8040;50.254;10.960;2023-04-29T02:35:47;97717.97;;;13.65;91.96
15884;BME280;8040;50.254;10.960;2023-04-29T02:38:13;97751.53;;;13.78;92.15
15884;BME280;8040;50.254;10.960;2023-04-29T02:40:44;97762.22;;;13.83;91.98
15884;BME280;8040;50.254;10.960;2023-04-29T02:43:10;97729.06;;;13.60;92.26
15884;BME280;8040;50.254;10.960;2023-04-29T02:45:36;97707.50;;;13.47;92.24
15884;BME280;8040;50.254;10.960;2023-04-29T02:48:03;97733.41;;;13.53;92.37
15884;BME280;8040;50.254;10.960;2023-04-29T02:50:29;97774.13;;;13.78;92.55
15884;BME280;8040;50.254;10.960;2023-04-29T02:52:54;97755.56;;;13.72;92.63
15884;BME280;8040;50.254;10.960;2023-04-29T02:55:19;97738.50;;;13.63;92.87
15884;BME280;8040;50.254;10.960;2023-04-29T02:57:45;97759.06;;;13.81;92.95
15884;BME280;8040;50.254;10.960;2023-04-29T03:00:11;97760.66;;;13.82;92.95
15884;BME280;8040;50.254;10.960;2023-04-29T03:02:36;97762.22;;;13.83;92.23
15884;BME280;8040;50.254;10.960;2023-04-29T03:05:02;97756.84;;;13.74;91.93
15884;BME280;8040;50.254;10.960;2023-04-29T03:07:29;97775.47;;;13.93;91.82
15884;BME280;8040;50.254;10.960;2023-04-29T03:09:54;97760.97;;;13.80;91.72
15884;BME280;8040;50.254;10.960;2023-04-29T03:12:20;97706.78;;;13.38;91.12
15884;BME280;8040;50.254;10.960;2023-04-29T03:14:46;97763.03;;;13.63;91.08
15884;BME280;8040;50.254;10.960;2023-04-29T03:17:11;97775.97;;;13.66;90.88
15884;BME280;8040;50.254;10.960;2023-04-29T03:19:37;97733.88;;;13.34;90.94
15884;BME280;8040;50.254;10.960;2023-04-29T03:22:02;97749.50;;;13.46;90.66
15884;BME280;8040;50.254;10.960;2023-04-29T03:24:27;97726.53;;;13.26;90.40
15884;BME280;8040;50.254;10.960;2023-04-29T03:26:53;97758.66;;;13.41;90.43
15884;BME280;8040;50.254;10.960;2023-04-29T03:29:19;97739.81;;;13.28;90.65
15884;BME280;8040;50.254;10.960;2023-04-29T03:31:44;97761.56;;;13.36;90.55
15884;BME280;8040;50.254;10.960;2023-04-29T03:34:10;97764.91;;;13.42;90.72
15884;BME280;8040;50.254;10.960;2023-04-29T03:36:35;97763.47;;;13.36;90.40
15884;BME280;8040;50.254;10.960;2023-04-29T03:39:01;97751.31;;;13.33;90.65
15884;BME280;8040;50.254;10.960;2023-04-29T03:41:26;97756.31;;;13.31;90.33
15884;BME280;8040;50.254;10.960;2023-04-29T03:43:51;97738.59;;;13.17;90.42
15884;BME280;8040;50.254;10.960;2023-04-29T03:46:19;97763.66;;;13.31;90.00
15884;BME280;8040;50.254;10.960;2023-04-29T03:48:44;97768.66;;;13.29;89.52
15884;BME280;8040;50.254;10.960;2023-04-29T03:51:09;97772.31;;;13.33;89.59
15884;BME280;8040;50.254;10.960;2023-04-29T03:53:35;97715.63;;;12.97;88.75
15884;BME280;8040;50.254;10.960;2023-04-29T03:56:01;97757.94;;;13.24;89.17
15884;BME280;8040;50.254;10.960;2023-04-29T03:58:27;97779.22;;;13.30;89.62
15884;BME280;8040;50.254;10.960;2023-04-29T04:00:53;97766.59;;;13.26;90.11
15884;BME280;8040;50.254;10.960;2023-04-29T04:03:19;97762.94;;;13.22;89.95
15884;BME280;8040;50.254;10.960;2023-04-29T04:05:44;97762.59;;;13.23;89.80
15884;BME280;8040;50.254;10.960;2023-04-29T04:08:09;97782.56;;;13.36;89.67
15884;BME280;8040;50.254;10.960;2023-04-29T04:10:35;97730.19;;;13.01;89.43
15884;BME280;8040;50.254;10.960;2023-04-29T04:13:01;97746.47;;;13.10;89.82
15884;BME280;8040;50.254;10.960;2023-04-29T04:15:26;97778.09;;;13.31;89.69
15884;BME280;8040;50.254;10.960;2023-04-29T04:17:51;97758.47;;;13.17;89.56
15884;BME280;8040;50.254;10.960;2023-04-29T04:20:17;97795.34;;;13.44;89.93
15884;BME280;8040;50.254;10.960;2023-04-29T04:22:42;97769.78;;;13.28;89.63
15884;BME280;8040;50.254;10.960;2023-04-29T04:25:08;97800.81;;;13.44;90.02
15884;BME280;8040;50.254;10.960;2023-04-29T04:27:34;97786.28;;;13.31;90.71
15884;BME280;8040;50.254;10.960;2023-04-29T04:29:59;97787.69;;;13.37;90.63
15884;BME280;8040;50.254;10.960;2023-04-29T04:32:25;97804.63;;;13.43;90.21
15884;BME280;8040;50.254;10.960;2023-04-29T04:34:52;97807.97;;;13.48;90.23
15884;BME280;8040;50.254;10.960;2023-04-29T04:37:17;97785.78;;;13.38;90.61
15884;BME280;8040;50.254;10.960;2023-04-29T04:39:43;97811.31;;;13.54;90.45
15884;BME280;8040;50.254;10.960;2023-04-29T04:42:08;97793.88;;;13.46;90.26
15884;BME280;8040;50.254;10.960;2023-04-29T04:44:33;97788.16;;;13.39;90.29
15884;BME280;8040;50.254;10.960;2023-04-29T04:46:59;97813.84;;;13.59;89.94
15884;BME280;8040;50.254;10.960;2023-04-29T04:49:27;97794.03;;;13.50;89.81
15884;BME280;8040;50.254;10.960;2023-04-29T04:51:52;97820.25;;;13.63;89.65
15884;BME280;8040;50.254;10.960;2023-04-29T04:54:18;97811.13;;;13.59;89.34
15884;BME280;8040;50.254;10.960;2023-04-29T04:56:43;97816.22;;;13.69;89.40
15884;BME280;8040;50.254;10.960;2023-04-29T04:59:09;97814.63;;;13.68;89.03
15884;BME280;8040;50.254;10.960;2023-04-29T05:01:37;97803.41;;;13.61;88.74
15884;BME280;8040;50.254;10.960;2023-04-29T05:04:03;97829.16;;;13.72;88.79
15884;BME280;8040;50.254;10.960;2023-04-29T05:06:28;97796.56;;;13.55;88.74
15884;BME280;8040;50.254;10.960;2023-04-29T05:08:53;97794.78;;;13.59;88.62
15884;BME280;8040;50.254;10.960;2023-04-29T05:11:20;97796.84;;;13.62;88.62
15884;BME280;8040;50.254;10.960;2023-04-29T05:13:46;97794.31;;;13.57;88.34
15884;BME280;8040;50.254;10.960;2023-04-29T05:16:12;97806.28;;;13.64;88.11
15884;BME280;8040;50.254;10.960;2023-04-29T05:18:37;97819.44;;;13.62;88.73
15884;BME280;8040;50.254;10.960;2023-04-29T05:21:03;97829.78;;;13.77;89.02
15884;BME280;8040;50.254;10.960;2023-04-29T05:23:28;97805.94;;;13.66;88.94
15884;BME280;8040;50.254;10.960;2023-04-29T05:25:54;97835.78;;;13.91;89.00
15884;BME280;8040;50.254;10.960;2023-04-29T05:28:20;97820.63;;;13.82;88.79
15884;BME280;8040;50.254;10.960;2023-04-29T05:30:45;97820.28;;;13.83;89.12
15884;BME280;8040;50.254;10.960;2023-04-29T05:33:11;97818.81;;;13.86;89.01
15884;BME280;8040;50.254;10.960;2023-04-29T05:35:37;97804.13;;;13.78;88.74
15884;BME280;8040;50.254;10.960;2023-04-29T05:38:02;97811.91;;;13.88;88.48
15884;BME280;8040;50.254;10.960;2023-04-29T05:40:28;97787.28;;;13.76;88.12
15884;BME280;8040;50.254;10.960;2023-04-29T05:42:54;97826.56;;;14.04;88.00
15884;BME280;8040;50.254;10.960;2023-04-29T05:45:19;97822.31;;;14.15;87.52
15884;BME280;8040;50.254;10.960;2023-04-29T05:47:45;97845.50;;;14.30;87.35
15884;BME280;8040;50.254;10.960;2023-04-29T05:50:10;97846.53;;;14.37;86.63
15884;BME280;8040;50.254;10.960;2023-04-29T05:52:36;97852.13;;;14.41;86.64
15884;BME280;8040;50.254;10.960;2023-04-29T05:55:02;97816.03;;;14.15;86.16
15884;BME280;8040;50.254;10.960;2023-04-29T05:57:27;97860.13;;;14.46;85.72
15884;BME280;8040;50.254;10.960;2023-04-29T05:59:53;97855.06;;;14.56;85.55
15884;BME280;8040;50.254;10.960;2023-04-29T06:02:22;97859.78;;;14.68;84.68
15884;BME280;8040;50.254;10.960;2023-04-29T06:04:47;97814.47;;;14.55;83.69
15884;BME280;8040;50.254;10.960;2023-04-29T06:07:13;97858.94;;;14.88;82.69
15884;BME280;8040;50.254;10.960;2023-04-29T06:09:38;97872.31;;;15.01;81.24
15884;BME280;8040;50.254;10.960;2023-04-29T06:12:04;97844.03;;;14.85;80.32
15884;BME280;8040;50.254;10.960;2023-04-29T06:14:30;97864.56;;;15.03;80.22
15884;BME280;8040;50.254;10.960;2023-04-29T06:16:56;97873.34;;;15.09;79.32
15884;BME280;8040;50.254;10.960;2023-04-29T06:19:21;97798.34;;;14.62;79.37
15884;BME280;8040;50.254;10.960;2023-04-29T06:21:47;97853.97;;;14.90;79.06
15884;BME280;8040;50.254;10.960;2023-04-29T06:24:12;97863.09;;;15.06;79.48
15884;BME280;8040;50.254;10.960;2023-04-29T06:26:37;97853.75;;;15.07;78.67
15884;BME280;8040;50.254;10.960;2023-04-29T06:29:03;97892.34;;;15.38;77.76
15884;BME280;8040;50.254;10.960;2023-04-29T06:31:28;97893.06;;;15.59;77.23
15884;BME280;8040;50.254;10.960;2023-04-29T06:33:54;97860.47;;;15.54;75.85
15884;BME280;8040;50.254;10.960;2023-04-29T06:36:20;97874.59;;;15.68;74.60
15884;BME280;8040;50.254;10.960;2023-04-29T06:38:45;97843.53;;;15.48;73.33
15884;BME280;8040;50.254;10.960;2023-04-29T06:41:10;97843.03;;;15.58;73.52
15884;BME280;8040;50.254;10.960;2023-04-29T06:43:36;97892.06;;;15.99;73.38
15884;BME280;8040;50.254;10.960;2023-04-29T06:46:01;97872.56;;;15.89;72.66
15884;BME280;8040;50.254;10.960;2023-04-29T06:48:27;97883.84;;;15.99;71.55
15884;BME280;8040;50.254;10.960;2023-04-29T06:50:56;97893.19;;;16.22;71.63
15884;BME280;8040;50.254;10.960;2023-04-29T06:53:23;97879.16;;;16.23;71.67
15884;BME280;8040;50.254;10.960;2023-04-29T06:55:49;97886.53;;;16.35;71.43
15884;BME280;8040;50.254;10.960;2023-04-29T06:58:15;97902.16;;;16.46;70.32
15884;BME280;8040;50.254;10.960;2023-04-29T07:00:45;97858.03;;;16.24;70.27
15884;BME280;8040;50.254;10.960;2023-04-29T07:03:11;97911.56;;;16.73;69.96
15884;BME280;8040;50.254;10.960;2023-04-29T07:05:37;97910.19;;;16.79;69.07
15884;BME280;8040;50.254;10.960;2023-04-29T07:08:21;97865.66;;;16.54;69.01
15884;BME280;8040;50.254;10.960;2023-04-29T07:10:55;97924.53;;;16.60;67.78
15884;BME280;8040;50.254;10.960;2023-04-29T07:13:24;97892.16;;;16.26;68.34
15884;BME280;8040;50.254;10.960;2023-04-29T07:15:49;97922.56;;;16.37;69.17
15884;BME280;8040;50.254;10.960;2023-04-29T07:18:15;97894.22;;;16.17;69.13
15884;BME280;8040;50.254;10.960;2023-04-29T07:20:44;97921.56;;;16.41;68.45
15884;BME280;8040;50.254;10.960;2023-04-29T07:23:13;97910.38;;;16.22;67.72
15884;BME280;8040;50.254;10.960;2023-04-29T07:25:39;97930.69;;;16.33;68.05
15884;BME280;8040;50.254;10.960;2023-04-29T07:28:05;97935.25;;;16.29;68.13
15884;BME280;8040;50.254;10.960;2023-04-29T07:30:30;97952.81;;;16.28;68.83
15884;BME280;8040;50.254;10.960;2023-04-29T07:32:56;97926.25;;;16.05;68.13
15884;BME280;8040;50.254;10.960;2023-04-29T07:35:21;97928.66;;;15.95;68.24
15884;BME280;8040;50.254;10.960;2023-04-29T07:37:47;97938.22;;;16.13;68.58
15884;BME280;8040;50.254;10.960;2023-04-29T07:40:12;97931.03;;;16.20;68.90
15884;BME280;8040;50.254;10.960;2023-04-29T07:42:38;97922.69;;;16.16;68.37
15884;BME280;8040;50.254;10.960;2023-04-29T07:45:03;97912.78;;;16.00;68.92
15884;BME280;8040;50.254;10.960;2023-04-29T07:47:29;97933.44;;;15.98;68.05
15884;BME280;8040;50.254;10.960;2023-04-29T07:49:55;97948.22;;;15.73;67.17
15884;BME280;8040;50.254;10.960;2023-04-29T07:52:23;97969.94;;;15.57;67.39
15884;BME280;8040;50.254;10.960;2023-04-29T07:54:49;97949.16;;;15.32;68.54
15884;BME280;8040;50.254;10.960;2023-04-29T07:57:14;97973.44;;;15.34;68.94
15884;BME280;8040;50.254;10.960;2023-04-29T07:59:40;97975.13;;;15.18;69.19
15884;BME280;8040;50.254;10.960;2023-04-29T08:02:05;97947.25;;;14.92;69.78
15884;BME280;8040;50.254;10.960;2023-04-29T08:04:31;97960.22;;;14.95;70.19
15884;BME280;8040;50.254;10.960;2023-04-29T08:06:56;97954.66;;;14.91;70.96
15884;BME280;8040;50.254;10.960;2023-04-29T08:09:21;97988.59;;;15.23;71.39
15884;BME280;8040;50.254;10.960;2023-04-29T08:11:47;97989.81;;;15.34;70.51
15884;BME280;8040;50.254;10.960;2023-04-29T08:14:14;97985.13;;;15.34;69.87
15884;BME280;8040;50.254;10.960;2023-04-29T08:16:40;97998.19;;;15.49;69.47
15884;BME280;8040;50.254;10.960;2023-04-29T08:19:07;97971.59;;;15.38;69.09
15884;BME280;8040;50.254;10.960;2023-04-29T08:21:32;97980.09;;;15.57;68.20
15884;BME280;8040;50.254;10.960;2023-04-29T08:23:58;97982.28;;;15.63;67.29
15884;BME280;8040;50.254;10.960;2023-04-29T08:26:24;97963.91;;;15.52;67.48
15884;BME280;8040;50.254;10.960;2023-04-29T08:28:49;97963.00;;;15.60;66.97
15884;BME280;8040;50.254;10.960;2023-04-29T08:31:16;98009.47;;;15.92;66.48
15884;BME280;8040;50.254;10.960;2023-04-29T08:33:42;97990.19;;;15.89;65.77
15884;BME280;8040;50.254;10.960;2023-04-29T08:36:08;98021.31;;;16.08;64.45
15884;BME280;8040;50.254;10.960;2023-04-29T08:38:33;98003.66;;;15.94;64.50
15884;BME280;8040;50.254;10.960;2023-04-29T08:41:00;98041.06;;;16.02;64.71
15884;BME280;8040;50.254;10.960;2023-04-29T08:43:26;97999.00;;;15.62;65.13
15884;BME280;8040;50.254;10.960;2023-04-29T08:45:52;98027.16;;;15.62;65.80
15884;BME280;8040;50.254;10.960;2023-04-29T08:48:18;98000.34;;;15.23;67.04
15884;BME280;8040;50.254;10.960;2023-04-29T08:50:44;98044.53;;;15.46;68.84
15884;BME280;8040;50.254;10.960;2023-04-29T08:53:11;98031.44;;;15.10;69.32
15884;BME280;8040;50.254;10.960;2023-04-29T08:55:42;98032.50;;;14.97;70.48
15884;BME280;8040;50.254;10.960;2023-04-29T08:58:08;98035.59;;;14.96;71.54
15884;BME280;8040;50.254;10.960;2023-04-29T09:00:35;98053.97;;;15.07;72.70
15884;BME280;8040;50.254;10.960;2023-04-29T09:05:44;98041.59;;;14.89;72.85
15884;BME280;8040;50.254;10.960;2023-04-29T09:08:13;98026.56;;;14.75;72.87
15884;BME280;8040;50.254;10.960;2023-04-29T09:10:41;98072.22;;;14.95;73.04
15884;BME280;8040;50.254;10.960;2023-04-29T09:13:06;98047.50;;;14.91;73.75
15884;BME280;8040;50.254;10.960;2023-04-29T09:15:36;98050.66;;;15.02;73.88
15884;BME280;8040;50.254;10.960;2023-04-29T09:18:01;98060.16;;;15.16;74.15
15884;BME280;8040;50.254;10.960;2023-04-29T09:20:28;98049.59;;;15.15;73.13
15884;BME280;8040;50.254;10.960;2023-04-29T09:23:02;98044.13;;;15.15;72.25
15884;BME280;8040;50.254;10.960;2023-04-29T09:25:30;98074.38;;;15.30;71.08
15884;BME280;8040;50.254;10.960;2023-04-29T09:27:56;98071.44;;;15.56;71.89
15884;BME280;8040;50.254;10.960;2023-04-29T09:30:22;98071.38;;;15.64;70.09
15884;BME280;8040;50.254;10.960;2023-04-29T09:33:05;98064.84;;;15.57;70.55
15884;BME280;8040;50.254;10.960;2023-04-29T09:35:31;98084.38;;;15.67;69.15
15884;BME280;8040;50.254;10.960;2023-04-29T09:38:15;98080.94;;;15.70;69.18
15884;BME280;8040;50.254;10.960;2023-04-29T09:40:42;98077.53;;;15.61;68.59
15884;BME280;8040;50.254;10.960;2023-04-29T09:43:15;98090.13;;;15.54;68.07
15884;BME280;8040;50.254;10.960;2023-04-29T09:45:44;98074.38;;;15.30;68.31
15884;BME280;8040;50.254;10.960;2023-04-29T09:48:11;98082.75;;;15.34;69.47
15884;BME280;8040;50.254;10.960;2023-04-29T09:50:38;98055.19;;;15.18;69.21
15884;BME280;8040;50.254;10.960;2023-04-29T09:53:06;98096.63;;;15.20;66.86
15884;BME280;8040;50.254;10.960;2023-04-29T09:55:34;98083.13;;;14.95;67.62
15884;BME280;8040;50.254;10.960;2023-04-29T09:58:00;98091.28;;;15.03;67.78
15884;BME280;8040;50.254;10.960;2023-04-29T10:00:29;98093.28;;;14.94;67.80
15884;BME280;8040;50.254;10.960;2023-04-29T10:02:57;98099.94;;;14.85;67.77
15884;BME280;8040;50.254;10.960;2023-04-29T10:05:26;98110.00;;;14.93;68.17
15884;BME280;8040;50.254;10.960;2023-04-29T10:07:53;98101.09;;;14.75;66.51
15884;BME280;8040;50.254;10.960;2023-04-29T10:10:22;98085.69;;;14.71;66.88
15884;BME280;8040;50.254;10.960;2023-04-29T10:12:53;98088.00;;;14.89;66.48
15884;BME280;8040;50.254;10.960;2023-04-29T10:15:28;98107.94;;;15.10;66.32
15884;BME280;8040;50.254;10.960;2023-04-29T10:18:13;98120.09;;;15.21;65.83
15884;BME280;8040;50.254;10.960;2023-04-29T10:20:45;98081.31;;;15.07;65.65
15884;BME280;8040;50.254;10.960;2023-04-29T10:23:12;98111.34;;;15.36;64.71
15884;BME280;8040;50.254;10.960;2023-04-29T10:25:41;98106.59;;;15.45;64.84
15884;BME280;8040;50.254;10.960;2023-04-29T10:28:11;98084.72;;;15.45;65.27
15884;BME280;8040;50.254;10.960;2023-04-29T10:30:41;98074.72;;;15.49;64.41
15884;BME280;8040;50.254;10.960;2023-04-29T10:33:09;98082.25;;;15.52;62.64
15884;BME280;8040;50.254;10.960;2023-04-29T10:35:37;98124.50;;;15.75;62.29
15884;BME280;8040;50.254;10.960;2023-04-29T10:38:12;98127.97;;;15.84;62.08
15884;BME280;8040;50.254;10.960;2023-04-29T10:40:43;98097.19;;;15.87;62.38
15884;BME280;8040;50.254;10.960;2023-04-29T10:43:13;98112.66;;;16.15;61.00
15884;BME280;8040;50.254;10.960;2023-04-29T10:45:39;98122.06;;;16.26;60.84
15884;BME280;8040;50.254;10.960;2023-04-29T10:48:09;98084.19;;;16.28;60.11
15884;BME280;8040;50.254;10.960;2023-04-29T10:53:04;98108.44;;;16.74;58.91
15884;BME280;8040;50.254;10.960;2023-04-29T10:55:30;98099.19;;;16.79;57.42
15884;BME280;8040;50.254;10.960;2023-04-29T10:57:56;98113.59;;;16.88;57.01
15884;BME280;8040;50.254;10.960;2023-04-29T11:00:32;98103.88;;;16.90;57.91
15884;BME280;8040;50.254;10.960;2023-04-29T11:03:00;98115.28;;;17.16;57.24
15884;BME280;8040;50.254;10.960;2023-04-29T11:05:31;98092.22;;;17.05;55.57
15884;BME280;8040;50.254;10.960;2023-04-29T11:08:19;98094.53;;;16.91;55.95
15884;BME280;8040;50.254;10.960;2023-04-29T11:10:52;98121.44;;;17.01;56.25
15884;BME280;8040;50.254;10.960;2023-04-29T11:13:26;98113.94;;;16.86;56.51
15884;BME280;8040;50.254;10.960;2023-04-29T11:16:02;98080.13;;;16.46;56.68
15884;BME280;8040;50.254;10.960;2023-04-29T11:18:28;98131.03;;;16.71;57.22
15884;BME280;8040;50.254;10.960;2023-04-29T11:23:38;98134.00;;;16.54;58.46
15884;BME280;8040;50.254;10.960;2023-04-29T11:26:05;98099.19;;;16.43;58.33
15884;BME280;8040;50.254;10.960;2023-04-29T11:28:32;98117.00;;;16.61;58.39
15884;BME280;8040;50.254;10.960;2023-04-29T11:30:58;98134.03;;;16.78;57.87
15884;BME280;8040;50.254;10.960;2023-04-29T11:33:24;98123.97;;;16.82;57.79
15884;BME280;8040;50.254;10.960;2023-04-29T11:35:53;98119.63;;;16.81;57.48
15884;BME280;8040;50.254;10.960;2023-04-29T11:38:26;98133.56;;;16.88;55.85
15884;BME280;8040;50.254;10.960;2023-04-29T11:40:53;98139.25;;;16.83;55.75
15884;BME280;8040;50.254;10.960;2023-04-29T11:43:21;98129.34;;;16.79;55.89
15884;BME280;8040;50.254;10.960;2023-04-29T11:45:47;98115.28;;;16.68;56.24
15884;BME280;8040;50.254;10.960;2023-04-29T11:48:24;98149.84;;;16.61;55.49
15884;BME280;8040;50.254;10.960;2023-04-29T11:50:56;98095.09;;;16.16;56.75
15884;BME280;8040;50.254;10.960;2023-04-29T11:53:23;98157.50;;;16.55;56.54
15884;BME280;8040;50.254;10.960;2023-04-29T11:55:53;98149.19;;;16.52;56.26
15884;BME280;8040;50.254;10.960;2023-04-29T11:58:23;98136.03;;;16.45;56.37
15884;BME280;8040;50.254;10.960;2023-04-29T12:00:49;98147.84;;;16.25;56.10
15884;BME280;8040;50.254;10.960;2023-04-29T12:03:17;98130.78;;;16.08;56.09
15884;BME280;8040;50.254;10.960;2023-04-29T12:05:47;98134.78;;;16.10;55.89
15884;BME280;8040;50.254;10.960;2023-04-29T12:08:19;98163.44;;;16.25;55.64
15884;BME280;8040;50.254;10.960;2023-04-29T12:10:46;98145.38;;;15.80;56.58
15884;BME280;8040;50.254;10.960;2023-04-29T12:13:11;98175.78;;;15.98;57.28
15884;BME280;8040;50.254;10.960;2023-04-29T12:15:37;98168.56;;;15.94;57.21
15884;BME280;8040;50.254;10.960;2023-04-29T12:18:03;98124.44;;;15.63;56.53
15884;BME280;8040;50.254;10.960;2023-04-29T12:20:28;98168.00;;;15.89;56.73
15884;BME280;8040;50.254;10.960;2023-04-29T12:22:54;98132.78;;;15.67;56.61
15884;BME280;8040;50.254;10.960;2023-04-29T12:25:24;98151.66;;;15.80;56.86
15884;BME280;8040;50.254;10.960;2023-04-29T12:27:49;98142.56;;;15.88;56.31
15884;BME280;8040;50.254;10.960;2023-04-29T12:30:15;98147.59;;;15.86;56.23
15884;BME280;8040;50.254;10.960;2023-04-29T12:32:40;98166.56;;;16.03;55.85
15884;BME280;8040;50.254;10.960;2023-04-29T12:35:13;98148.53;;;16.02;56.19
15884;BME280;8040;50.254;10.960;2023-04-29T12:37:40;98174.19;;;16.30;55.24
15884;BME280;8040;50.254;10.960;2023-04-29T12:40:06;98150.81;;;16.32;55.52
15884;BME280;8040;50.254;10.960;2023-04-29T12:42:38;98103.09;;;16.21;54.91
15884;BME280;8040;50.254;10.960;2023-04-29T12:45:05;98180.13;;;16.88;54.54
15884;BME280;8040;50.254;10.960;2023-04-29T12:47:31;98150.69;;;16.73;52.66
15884;BME280;8040;50.254;10.960;2023-04-29T12:50:01;98161.88;;;16.92;52.77
15884;BME280;8040;50.254;10.960;2023-04-29T12:52:26;98181.72;;;17.01;52.42
15884;BME280;8040;50.254;10.960;2023-04-29T12:54:55;98177.28;;;16.85;51.40
15884;BME280;8040;50.254;10.960;2023-04-29T12:57:21;98188.56;;;16.95;51.84
15884;BME280;8040;50.254;10.960;2023-04-29T12:59:47;98181.16;;;16.84;51.75
15884;BME280;8040;50.254;10.960;2023-04-29T13:02:12;98184.72;;;16.84;51.98
15884;BME280;8040;50.254;10.960;2023-04-29T13:04:37;98187.44;;;16.84;52.50
15884;BME280;8040;50.254;10.960;2023-04-29T13:07:03;98186.53;;;16.80;52.42
15884;BME280;8040;50.254;10.960;2023-04-29T13:09:28;98158.41;;;16.59;53.11
15884;BME280;8040;50.254;10.960;2023-04-29T13:11:54;98151.34;;;16.58;53.70
15884;BME280;8040;50.254;10.960;2023-04-29T13:14:20;98191.06;;;16.76;51.99
15884;BME280;8040;50.254;10.960;2023-04-29T13:16:46;98172.06;;;16.47;51.97
15884;BME280;8040;50.254;10.960;2023-04-29T13:19:11;98160.69;;;16.45;51.94